createdAt,value
2022-09-14T00:01:28.891Z,2.80
2022-09-14T00:04:01.510Z,2.33
2022-09-14T00:06:30.367Z,2.05
2022-09-14T00:08:58.928Z,2.55
2022-09-14T00:11:27.783Z,2.30
2022-09-14T00:13:56.039Z,2.50
2022-09-14T00:16:25.901Z,2.50
2022-09-14T00:18:54.351Z,2.20
2022-09-14T00:21:21.606Z,3.10
2022-09-14T00:23:48.406Z,2.13
2022-09-14T00:26:18.200Z,1.90
2022-09-14T00:28:47.786Z,1.45
2022-09-14T00:31:15.562Z,2.10
2022-09-14T00:33:44.078Z,1.90
2022-09-14T00:36:26.895Z,1.60
2022-09-14T00:38:56.601Z,1.95
2022-09-14T00:41:26.022Z,1.77
2022-09-14T00:44:06.502Z,2.20
2022-09-14T00:46:42.528Z,1.90
2022-09-14T00:49:13.231Z,1.70
2022-09-14T00:51:52.035Z,1.50
2022-09-14T00:54:19.467Z,1.92
2022-09-14T00:56:47.719Z,1.45
2022-09-14T00:59:19.437Z,1.20
2022-09-14T01:01:46.681Z,1.40
2022-09-14T01:04:13.431Z,1.40
2022-09-14T01:06:56.820Z,1.50
2022-09-14T01:09:29.269Z,1.40
2022-09-14T01:12:11.113Z,1.50
2022-09-14T01:15:15.892Z,1.45
2022-09-14T01:18:03.979Z,1.40
2022-09-14T01:20:40.331Z,1.45
2022-09-14T01:23:27.496Z,1.20
2022-09-14T01:26:25.003Z,1.58
2022-09-14T01:29:11.989Z,1.30
2022-09-14T01:31:52.966Z,1.10
2022-09-14T01:34:31.607Z,1.60
2022-09-14T01:37:04.811Z,1.73
2022-09-14T01:39:35.154Z,1.55
2022-09-14T01:42:03.049Z,1.23
2022-09-14T01:44:36.016Z,1.55
2022-09-14T01:47:13.188Z,1.20
2022-09-14T01:49:46.803Z,1.33
2022-09-14T01:52:19.995Z,1.50
2022-09-14T01:54:52.802Z,1.10
2022-09-14T01:57:31.853Z,1.40
2022-09-14T02:00:03.744Z,1.40
2022-09-14T02:02:41.598Z,1.35
2022-09-14T02:05:15.141Z,1.23
2022-09-14T02:07:41.936Z,1.50
2022-09-14T02:10:12.471Z,1.70
2022-09-14T02:12:40.681Z,1.52
2022-09-14T02:15:10.714Z,1.67
2022-09-14T02:17:37.926Z,1.70
2022-09-14T02:20:08.322Z,1.60
2022-09-14T02:22:35.692Z,1.40
2022-09-14T02:25:03.058Z,1.52
2022-09-14T02:27:29.628Z,1.50
2022-09-14T02:29:56.392Z,1.65
2022-09-14T02:32:38.903Z,1.60
2022-09-14T02:35:11.062Z,1.67
2022-09-14T02:40:22.349Z,1.50
2022-09-14T02:43:01.686Z,1.52
2022-09-14T02:45:28.287Z,1.90
2022-09-14T02:48:11.445Z,1.90
2022-09-14T02:51:05.064Z,1.60
2022-09-14T02:53:46.271Z,1.80
2022-09-14T02:56:15.019Z,1.90
2022-09-14T02:58:43.801Z,1.70
2022-09-14T03:01:13.666Z,1.67
2022-09-14T03:03:40.493Z,1.73
2022-09-14T03:06:07.305Z,1.58
2022-09-14T03:08:34.191Z,1.90
2022-09-14T03:11:01.024Z,1.75
2022-09-14T03:13:27.708Z,1.63
2022-09-14T03:15:54.832Z,2.03
2022-09-14T03:18:21.483Z,1.60
2022-09-14T03:20:48.190Z,1.90
2022-09-14T03:23:15.127Z,1.88
2022-09-14T03:25:44.523Z,1.75
2022-09-14T03:28:12.804Z,1.70
2022-09-14T03:30:39.995Z,1.75
2022-09-14T03:33:07.082Z,1.45
2022-09-14T03:35:34.093Z,1.90
2022-09-14T03:38:03.048Z,2.33
2022-09-14T03:40:29.953Z,1.52
2022-09-14T03:42:57.092Z,2.10
2022-09-14T03:45:23.975Z,2.05
2022-09-14T03:47:50.611Z,2.45
2022-09-14T03:50:18.222Z,2.10
2022-09-14T03:52:45.099Z,2.10
2022-09-14T03:55:11.963Z,1.70
2022-09-14T03:57:39.384Z,2.25
2022-09-14T04:00:07.655Z,2.35
2022-09-14T04:02:34.461Z,2.03
2022-09-14T04:05:01.185Z,1.63
2022-09-14T04:07:27.804Z,1.70
2022-09-14T04:09:54.502Z,1.77
2022-09-14T04:12:21.160Z,1.85
2022-09-14T04:14:47.902Z,1.70
2022-09-14T04:17:14.552Z,2.00
2022-09-14T04:19:42.110Z,1.50
2022-09-14T04:22:09.240Z,1.92
2022-09-14T04:24:36.445Z,1.80
2022-09-14T04:27:03.193Z,1.80
2022-09-14T04:29:30.658Z,2.00
2022-09-14T04:31:57.978Z,1.75
2022-09-14T04:34:24.791Z,1.88
2022-09-14T04:36:51.680Z,1.52
2022-09-14T04:39:18.498Z,2.00
2022-09-14T04:41:45.215Z,1.90
2022-09-14T04:44:12.073Z,2.38
2022-09-14T04:46:43.594Z,1.45
2022-09-14T04:49:12.980Z,1.80
2022-09-14T04:51:39.842Z,1.48
2022-09-14T04:54:07.505Z,1.50
2022-09-14T04:56:36.830Z,1.42
2022-09-14T04:59:05.603Z,1.73
2022-09-14T05:01:37.249Z,1.65
2022-09-14T05:04:12.997Z,1.67
2022-09-14T05:06:41.527Z,1.73
2022-09-14T05:09:13.600Z,1.20
2022-09-14T05:11:41.271Z,1.70
2022-09-14T05:14:09.625Z,1.70
2022-09-14T05:16:37.882Z,1.40
2022-09-14T05:19:07.799Z,1.60
2022-09-14T05:21:36.140Z,1.48
2022-09-14T05:24:14.967Z,1.30
2022-09-14T05:26:43.306Z,1.45
2022-09-14T05:29:15.362Z,1.33
2022-09-14T05:31:42.369Z,1.10
2022-09-14T05:34:10.666Z,1.63
2022-09-14T05:36:38.143Z,1.38
2022-09-14T05:39:06.115Z,1.52
2022-09-14T05:41:32.980Z,2.15
2022-09-14T05:44:00.679Z,1.25
2022-09-14T05:46:27.508Z,1.42
2022-09-14T05:48:54.457Z,1.35
2022-09-14T05:51:23.441Z,1.75
2022-09-14T05:53:51.717Z,1.20
2022-09-14T05:56:19.642Z,1.20
2022-09-14T05:58:46.988Z,1.40
2022-09-14T06:01:17.519Z,1.45
2022-09-14T06:03:45.817Z,1.50
2022-09-14T06:06:15.438Z,1.30
2022-09-14T06:08:44.224Z,1.40
2022-09-14T06:11:18.983Z,1.38
2022-09-14T06:13:47.005Z,1.52
2022-09-14T06:16:18.522Z,1.85
2022-09-14T06:18:47.460Z,1.38
2022-09-14T06:21:17.737Z,1.20
2022-09-14T06:23:46.096Z,1.45
2022-09-14T06:26:13.827Z,1.50
2022-09-14T06:28:41.609Z,1.60
2022-09-14T06:31:14.176Z,1.38
2022-09-14T06:33:46.265Z,1.35
2022-09-14T06:36:19.654Z,1.50
2022-09-14T06:38:48.884Z,1.20
2022-09-14T06:41:18.064Z,1.40
2022-09-14T06:43:45.814Z,1.27
2022-09-14T06:46:21.708Z,1.10
2022-09-14T06:48:53.057Z,1.20
2022-09-14T06:51:21.544Z,1.50
2022-09-14T06:53:49.443Z,1.55
2022-09-14T06:56:16.776Z,1.67
2022-09-14T06:58:43.933Z,1.52
2022-09-14T07:01:14.254Z,1.65
2022-09-14T07:03:43.482Z,1.60
2022-09-14T07:06:14.137Z,1.73
2022-09-14T07:08:41.692Z,1.73
2022-09-14T07:11:10.127Z,2.05
2022-09-14T07:13:37.202Z,1.33
2022-09-14T07:16:04.645Z,1.27
2022-09-14T07:18:35.356Z,1.42
2022-09-14T07:21:09.961Z,1.45
2022-09-14T07:23:38.494Z,1.13
2022-09-14T07:26:10.331Z,1.35
2022-09-14T07:28:38.098Z,1.60
2022-09-14T07:31:06.438Z,1.58
2022-09-14T07:33:33.880Z,1.45
2022-09-14T07:36:11.357Z,1.15
2022-09-14T07:38:53.850Z,1.20
2022-09-14T07:41:22.512Z,1.33
2022-09-14T07:43:52.143Z,1.45
2022-09-14T07:46:19.941Z,1.00
2022-09-14T07:48:47.829Z,1.30
2022-09-14T07:51:14.721Z,1.13
2022-09-14T07:53:43.379Z,1.33
2022-09-14T07:56:11.711Z,0.90
2022-09-14T07:58:38.971Z,1.90
2022-09-14T08:01:13.919Z,1.40
2022-09-14T08:03:43.375Z,1.42
2022-09-14T08:06:16.117Z,1.23
2022-09-14T08:08:44.982Z,1.48
2022-09-14T08:11:14.031Z,1.50
2022-09-14T08:13:44.284Z,1.40
2022-09-14T08:16:11.882Z,1.30
2022-09-14T08:18:39.209Z,1.45
2022-09-14T08:21:11.530Z,1.23
2022-09-14T08:23:39.595Z,1.35
2022-09-14T08:26:08.460Z,1.70
2022-09-14T08:28:36.350Z,1.30
2022-09-14T08:31:05.396Z,1.35
2022-09-14T08:33:33.823Z,1.25
2022-09-14T08:36:00.987Z,1.40
2022-09-14T08:38:27.851Z,1.67
2022-09-14T08:40:55.244Z,1.88
2022-09-14T08:43:25.236Z,1.67
2022-09-14T08:45:57.571Z,1.42
2022-09-14T08:48:30.739Z,1.70
2022-09-14T08:50:57.312Z,1.30
2022-09-14T08:53:25.546Z,1.70
2022-09-14T08:56:07.937Z,2.10
2022-09-14T08:59:06.145Z,1.75
2022-09-14T09:02:03.896Z,1.60
2022-09-14T09:04:44.961Z,2.08
2022-09-14T09:07:22.896Z,1.98
2022-09-14T09:09:52.430Z,1.70
2022-09-14T09:12:23.763Z,2.65
2022-09-14T09:14:55.042Z,2.05
2022-09-14T09:17:29.202Z,1.70
2022-09-14T09:20:20.704Z,1.80
2022-09-14T09:22:54.582Z,1.80
2022-09-14T09:25:29.410Z,1.60
2022-09-14T09:28:02.508Z,1.92
2022-09-14T09:30:30.180Z,1.90
2022-09-14T09:32:57.646Z,1.58
2022-09-14T09:35:24.986Z,1.50
2022-09-14T09:37:51.738Z,2.17
2022-09-14T09:40:32.362Z,1.90
2022-09-14T09:43:06.024Z,2.10
2022-09-14T09:45:48.690Z,2.03
2022-09-14T09:48:17.736Z,2.00
2022-09-14T09:50:59.354Z,2.20
2022-09-14T09:53:26.216Z,2.50
2022-09-14T09:55:53.067Z,1.85
2022-09-14T09:58:37.615Z,2.00
2022-09-14T10:01:12.024Z,1.52
2022-09-14T10:03:40.530Z,1.90
2022-09-14T10:06:12.321Z,2.10
2022-09-14T10:08:44.761Z,2.20
2022-09-14T10:11:32.410Z,2.08
2022-09-14T10:13:59.732Z,2.10
2022-09-14T10:16:33.437Z,2.97
2022-09-14T10:19:02.770Z,3.28
2022-09-14T10:21:31.224Z,2.20
2022-09-14T10:24:17.118Z,2.20
2022-09-14T10:26:44.111Z,2.88
2022-09-14T10:29:41.732Z,2.80
2022-09-14T10:32:22.217Z,2.45
2022-09-14T10:34:48.968Z,2.53
2022-09-14T10:37:43.453Z,2.60
2022-09-14T10:40:20.362Z,4.05
2022-09-14T10:42:51.793Z,3.00
2022-09-14T10:45:55.110Z,2.92
2022-09-14T10:48:46.347Z,3.00
2022-09-14T10:51:25.468Z,3.33
2022-09-14T10:54:14.976Z,2.70
2022-09-14T10:56:59.715Z,3.00
2022-09-14T11:02:42.270Z,3.17
2022-09-14T11:05:27.010Z,4.03
2022-09-14T11:08:05.708Z,3.67
2022-09-14T11:10:56.056Z,3.28
2022-09-14T11:13:50.745Z,2.80
2022-09-14T11:16:47.933Z,3.92
2022-09-14T11:19:35.439Z,3.38
2022-09-14T11:22:28.451Z,3.63
2022-09-14T11:25:17.999Z,3.38
2022-09-14T11:28:00.688Z,3.35
2022-09-14T11:30:39.460Z,2.70
2022-09-14T11:33:14.213Z,2.40
2022-09-14T11:36:07.019Z,2.70
2022-09-14T11:38:48.523Z,2.63
2022-09-14T11:41:32.466Z,2.40
2022-09-14T11:44:02.711Z,1.98
2022-09-14T11:46:44.966Z,2.45
2022-09-14T11:49:26.667Z,2.00
2022-09-14T11:52:02.629Z,1.90
2022-09-14T11:54:29.276Z,2.65
2022-09-14T11:57:01.931Z,1.77
2022-09-14T11:59:39.561Z,1.38
2022-09-14T12:02:24.975Z,1.70
2022-09-14T12:05:07.284Z,1.90
2022-09-14T12:07:42.369Z,1.65
2022-09-14T12:10:15.328Z,1.20
2022-09-14T12:12:44.110Z,1.00
2022-09-14T12:15:28.872Z,1.10
2022-09-14T12:20:38.426Z,0.88
2022-09-14T12:23:26.203Z,0.93
2022-09-14T12:26:00.049Z,0.85
2022-09-14T12:28:34.662Z,1.88
2022-09-14T12:31:02.681Z,0.77
2022-09-14T12:33:32.442Z,1.10
2022-09-14T12:36:11.047Z,1.25
2022-09-14T12:38:38.017Z,1.02
2022-09-14T12:41:10.372Z,0.88
2022-09-14T12:43:37.283Z,1.40
2022-09-14T12:46:22.347Z,1.13
2022-09-14T12:48:49.137Z,1.23
2022-09-14T12:51:29.375Z,1.33
2022-09-14T12:54:01.055Z,1.50
2022-09-14T12:56:41.429Z,1.75
2022-09-14T12:59:29.685Z,1.75
2022-09-14T13:02:23.962Z,1.50
2022-09-14T13:04:56.427Z,1.90
2022-09-14T13:07:26.046Z,1.60
2022-09-14T13:09:55.555Z,2.47
2022-09-14T13:12:34.690Z,1.77
2022-09-14T13:15:07.416Z,1.50
2022-09-14T13:17:34.164Z,1.77
2022-09-14T13:20:15.642Z,1.90
2022-09-14T13:22:43.035Z,2.20
2022-09-14T13:25:32.289Z,2.28
2022-09-14T13:28:16.482Z,2.30
2022-09-14T13:30:43.537Z,2.75
2022-09-14T13:33:17.751Z,2.30
2022-09-14T13:36:01.756Z,2.80
2022-09-14T13:38:34.339Z,2.67
2022-09-14T13:41:15.056Z,3.15
2022-09-14T13:43:44.061Z,3.08
2022-09-14T13:46:11.819Z,3.67
2022-09-14T13:48:41.420Z,4.13
2022-09-14T13:51:09.399Z,3.55
2022-09-14T13:53:51.553Z,3.10
2022-09-14T13:56:31.103Z,4.05
2022-09-14T13:59:07.124Z,3.00
2022-09-14T14:01:38.413Z,3.03
2022-09-14T14:04:05.392Z,2.60
2022-09-14T14:06:37.915Z,2.28
2022-09-14T14:09:09.836Z,2.67
2022-09-14T14:11:43.234Z,2.47
2022-09-14T14:14:16.151Z,2.72
2022-09-14T14:17:21.555Z,2.90
2022-09-14T14:19:50.011Z,2.65
2022-09-14T14:22:20.897Z,2.38
2022-09-14T14:25:12.444Z,2.22
2022-09-14T14:27:43.713Z,2.63
2022-09-14T14:30:22.027Z,2.20
2022-09-14T14:32:56.999Z,2.35
2022-09-14T14:35:30.076Z,2.42
2022-09-14T14:37:57.617Z,2.50
2022-09-14T14:40:27.262Z,2.30
2022-09-14T14:42:55.241Z,2.58
2022-09-14T14:45:26.517Z,2.50
2022-09-14T14:47:55.044Z,2.30
2022-09-14T14:50:24.281Z,2.63
2022-09-14T14:52:51.707Z,2.30
2022-09-14T14:55:21.041Z,2.30
2022-09-14T14:57:48.812Z,2.05
2022-09-14T15:00:26.263Z,2.22
2022-09-14T15:02:53.008Z,2.35
2022-09-14T15:05:20.597Z,2.22
2022-09-14T15:07:49.982Z,2.42
2022-09-14T15:10:17.102Z,2.25
2022-09-14T15:12:44.498Z,2.15
2022-09-14T15:15:16.428Z,2.28
2022-09-14T15:17:43.781Z,2.72
2022-09-14T15:20:11.021Z,2.40
2022-09-14T15:22:38.194Z,2.60
2022-09-14T15:25:05.939Z,2.15
2022-09-14T15:27:33.222Z,2.85
2022-09-14T15:30:00.026Z,2.35
2022-09-14T15:32:26.769Z,2.50
2022-09-14T15:34:53.613Z,2.20
2022-09-14T15:37:20.491Z,2.38
2022-09-14T15:39:54.807Z,2.75
2022-09-14T15:42:27.187Z,2.35
2022-09-14T15:44:53.876Z,2.25
2022-09-14T15:47:20.646Z,2.30
2022-09-14T15:49:51.612Z,2.40
2022-09-14T15:52:18.747Z,2.38
2022-09-14T15:54:45.424Z,2.00
2022-09-14T15:57:13.333Z,2.30
2022-09-14T15:59:40.108Z,2.92
2022-09-14T16:02:07.139Z,2.47
2022-09-14T16:04:38.188Z,2.50
2022-09-14T16:07:09.617Z,2.67
2022-09-14T16:09:41.395Z,2.83
2022-09-14T16:12:12.908Z,3.72
2022-09-14T16:14:39.613Z,2.65
2022-09-14T16:17:06.614Z,3.17
2022-09-14T16:19:33.319Z,3.00
2022-09-14T16:22:00.376Z,4.03
2022-09-14T16:24:27.612Z,3.13
2022-09-14T16:26:54.932Z,3.35
2022-09-14T16:29:24.133Z,3.10
2022-09-14T16:31:51.486Z,2.88
2022-09-14T16:34:24.362Z,3.05
2022-09-14T16:36:51.705Z,2.63
2022-09-14T16:39:22.882Z,2.63
2022-09-14T16:41:50.001Z,2.58
2022-09-14T16:44:22.871Z,2.33
2022-09-14T16:46:49.886Z,2.63
2022-09-14T16:49:17.957Z,2.75
2022-09-14T16:51:44.887Z,2.50
2022-09-14T16:54:18.989Z,3.10
2022-09-14T16:56:46.647Z,2.83
2022-09-14T16:59:14.006Z,2.50
2022-09-14T17:01:49.751Z,2.28
2022-09-14T17:04:22.969Z,2.38
2022-09-14T17:06:51.477Z,2.35
2022-09-14T17:09:20.994Z,3.08
2022-09-14T17:11:48.577Z,3.03
2022-09-14T17:14:28.508Z,3.28
2022-09-14T17:16:55.703Z,2.80
2022-09-14T17:19:22.959Z,3.33
2022-09-14T17:21:49.972Z,3.15
2022-09-14T17:24:18.685Z,3.05
2022-09-14T17:26:45.680Z,3.55
2022-09-14T17:29:12.520Z,3.13
2022-09-14T17:31:42.611Z,3.10
2022-09-14T17:34:11.441Z,2.70
2022-09-14T17:36:38.851Z,2.30
2022-09-14T17:39:11.657Z,3.08
2022-09-14T17:41:39.650Z,2.90
2022-09-14T17:44:07.505Z,3.05
2022-09-14T17:46:34.801Z,2.75
2022-09-14T17:49:04.796Z,2.70
2022-09-14T17:51:32.819Z,3.03
2022-09-14T17:54:00.997Z,1.80
2022-09-14T17:56:28.932Z,3.08
2022-09-14T17:59:02.330Z,2.25
2022-09-14T18:01:29.929Z,2.95
2022-09-14T18:04:00.238Z,2.15
2022-09-14T18:06:29.800Z,2.72
2022-09-14T18:09:00.349Z,3.08
2022-09-14T18:11:28.193Z,3.10
2022-09-14T18:13:55.957Z,2.88
2022-09-14T18:16:23.873Z,3.70
2022-09-14T18:18:51.066Z,3.17
2022-09-14T18:21:18.729Z,3.15
2022-09-14T18:23:50.366Z,3.10
2022-09-14T18:26:17.231Z,2.95
2022-09-14T18:28:44.766Z,2.83
2022-09-14T18:31:13.670Z,3.53
2022-09-14T18:33:46.003Z,3.00
2022-09-14T18:38:42.099Z,3.40
2022-09-14T18:41:10.327Z,3.80
2022-09-14T18:43:37.664Z,3.53
2022-09-14T18:46:08.363Z,3.35
2022-09-14T18:48:35.548Z,3.65
2022-09-14T18:51:05.395Z,3.65
2022-09-14T18:53:32.712Z,3.35
2022-09-14T18:56:11.475Z,3.80
2022-09-14T18:58:45.155Z,3.75
2022-09-14T19:01:13.077Z,3.83
2022-09-14T19:03:41.879Z,3.80
2022-09-14T19:06:11.518Z,4.30
2022-09-14T19:08:38.359Z,4.05
2022-09-14T19:11:14.292Z,3.22
2022-09-14T19:13:41.310Z,3.92
2022-09-14T19:16:09.119Z,3.83
2022-09-14T19:18:36.546Z,4.22
2022-09-14T19:21:07.001Z,3.92
2022-09-14T19:23:34.304Z,4.57
2022-09-14T19:26:23.346Z,4.50
2022-09-14T19:28:50.085Z,5.18
2022-09-14T19:31:18.964Z,4.13
2022-09-14T19:33:46.182Z,4.00
2022-09-14T19:36:19.940Z,5.07
2022-09-14T19:38:48.087Z,5.13
2022-09-14T19:41:16.164Z,4.30
2022-09-14T19:43:43.454Z,4.70
2022-09-14T19:46:22.851Z,5.30
2022-09-14T19:48:49.760Z,4.88
2022-09-14T19:51:22.142Z,5.40
2022-09-14T19:53:50.613Z,5.38
2022-09-14T19:56:21.585Z,5.22
2022-09-14T19:58:50.259Z,5.55
2022-09-14T20:01:19.361Z,5.57
2022-09-14T20:03:47.004Z,4.45
2022-09-14T20:06:19.281Z,5.32
2022-09-14T20:11:19.191Z,6.00
2022-09-14T20:13:48.421Z,5.75
2022-09-14T20:16:21.272Z,5.30
2022-09-14T20:18:49.467Z,4.30
2022-09-14T20:21:19.568Z,5.97
2022-09-14T20:24:11.605Z,5.07
2022-09-14T20:26:33.605Z,6.15
2022-09-14T20:29:01.184Z,6.60
2022-09-14T20:31:29.340Z,6.05
2022-09-14T20:33:57.226Z,6.60
2022-09-14T20:36:25.189Z,5.53
2022-09-14T20:38:54.683Z,5.78
2022-09-14T20:41:24.250Z,5.60
2022-09-14T20:43:51.592Z,6.15
2022-09-14T20:46:23.285Z,6.85
2022-09-14T20:48:50.969Z,6.30
2022-09-14T20:51:20.536Z,6.35
2022-09-14T20:53:48.566Z,6.20
2022-09-14T20:56:21.229Z,6.72
2022-09-14T20:58:48.838Z,6.82
2022-09-14T21:01:20.534Z,6.75
2022-09-14T21:03:48.969Z,5.35
2022-09-14T21:06:23.639Z,5.88
2022-09-14T21:08:50.787Z,6.05
2022-09-14T21:11:20.673Z,5.95
2022-09-14T21:13:47.939Z,6.20
2022-09-14T21:16:21.322Z,6.63
2022-09-14T21:18:52.131Z,6.05
2022-09-14T21:21:19.756Z,5.63
2022-09-14T21:23:48.550Z,5.65
2022-09-14T21:26:16.128Z,5.82
2022-09-14T21:28:43.108Z,5.47
2022-09-14T21:31:21.052Z,6.13
2022-09-14T21:33:50.921Z,5.60
2022-09-14T21:36:18.983Z,5.50
2022-09-14T21:38:54.039Z,5.50
2022-09-14T21:41:22.759Z,5.13
2022-09-14T21:43:49.836Z,5.05
2022-09-14T21:46:17.005Z,4.93
2022-09-14T21:48:43.813Z,5.40
2022-09-14T21:51:10.406Z,5.53
2022-09-14T21:53:37.234Z,4.82
2022-09-14T21:56:05.757Z,5.80
2022-09-14T21:58:32.826Z,4.80
2022-09-14T22:01:01.231Z,4.00
2022-09-14T22:03:28.632Z,4.25
2022-09-14T22:06:05.392Z,4.82
2022-09-14T22:08:34.104Z,6.03
2022-09-14T22:11:15.027Z,4.95
2022-09-14T22:13:42.319Z,3.85
2022-09-14T22:16:10.956Z,4.35
2022-09-14T22:18:39.127Z,4.20
2022-09-14T22:21:06.790Z,5.00
2022-09-14T22:23:34.998Z,5.75
2022-09-14T22:26:09.088Z,3.53
2022-09-14T22:28:42.668Z,3.92
2022-09-14T22:31:09.525Z,5.07
2022-09-14T22:33:36.421Z,4.13
2022-09-14T22:36:05.265Z,3.95
2022-09-14T22:38:34.470Z,4.22
2022-09-14T22:41:07.155Z,4.50
2022-09-14T22:43:35.263Z,4.00
2022-09-14T22:46:02.653Z,3.58
2022-09-14T22:48:29.394Z,3.78
2022-09-14T22:50:57.530Z,3.92
2022-09-14T22:53:25.581Z,4.00
2022-09-14T22:55:52.878Z,3.33
2022-09-14T22:58:22.740Z,3.97
2022-09-14T23:00:49.531Z,4.10
2022-09-14T23:03:17.469Z,3.40
2022-09-14T23:05:51.363Z,2.55
2022-09-14T23:08:18.891Z,2.47
2022-09-14T23:10:47.317Z,4.18
2022-09-14T23:13:15.024Z,3.25
2022-09-14T23:15:41.999Z,4.00
2022-09-14T23:18:09.253Z,3.53
2022-09-14T23:20:38.133Z,3.20
2022-09-14T23:23:04.809Z,3.30
2022-09-14T23:25:34.248Z,3.28
2022-09-14T23:28:01.782Z,2.92
2022-09-14T23:30:28.478Z,3.03
2022-09-14T23:32:55.132Z,3.15
2022-09-14T23:35:21.818Z,2.80
2022-09-14T23:37:48.480Z,2.72
2022-09-14T23:40:15.262Z,3.10
2022-09-14T23:42:41.978Z,2.90
2022-09-14T23:45:09.242Z,2.70
2022-09-14T23:47:36.036Z,2.92
2022-09-14T23:50:02.663Z,2.95
2022-09-14T23:52:57.375Z,3.60
2022-09-14T23:55:24.940Z,4.03
2022-09-14T23:57:51.615Z,2.95
